sensor_id;sensor_type;location;lat;lon;timestamp;temperature;humidity
65040;HTU21D;51606;45.000;38.612;2024-02-21T03:44:18;0.60;74.35
65040;HTU21D;51606;45.000;38.612;2024-02-21T03:46:45;0.62;74.38
65040;HTU21D;51606;45.000;38.612;2024-02-21T03:49:11;0.61;74.41
65040;HTU21D;51606;45.000;38.612;2024-02-21T03:51:38;0.60;74.44
65040;HTU21D;51606;45.000;38.612;2024-02-21T03:54:04;0.59;74.47
65040;HTU21D;51606;45.000;38.612;2024-02-21T03:56:31;0.59;74.51
65040;HTU21D;51606;45.000;38.612;2024-02-21T03:58:58;0.59;74.56
65040;HTU21D;51606;45.000;38.612;2024-02-21T04:01:24;0.60;74.54
65040;HTU21D;51606;45.000;38.612;2024-02-21T04:03:50;0.60;74.55
65040;HTU21D;51606;45.000;38.612;2024-02-21T04:06:17;0.62;74.52
65040;HTU21D;51606;45.000;38.612;2024-02-21T04:08:43;0.62;74.52
65040;HTU21D;51606;45.000;38.612;2024-02-21T04:11:11;0.63;74.52
65040;HTU21D;51606;45.000;38.612;2024-02-21T04:13:37;0.62;74.57
65040;HTU21D;51606;45.000;38.612;2024-02-21T04:16:04;0.61;74.57
65040;HTU21D;51606;45.000;38.612;2024-02-21T04:18:31;0.60;74.58
65040;HTU21D;51606;45.000;38.612;2024-02-21T04:20:58;0.61;74.62
65040;HTU21D;51606;45.000;38.612;2024-02-21T04:23:24;0.62;74.56
65040;HTU21D;51606;45.000;38.612;2024-02-21T04:25:50;0.60;74.58
65040;HTU21D;51606;45.000;38.612;2024-02-21T04:28:18;0.59;74.61
65040;HTU21D;51606;45.000;38.612;2024-02-21T04:30:44;0.57;74.66
65040;HTU21D;51606;45.000;38.612;2024-02-21T04:33:11;0.57;74.68
65040;HTU21D;51606;45.000;38.612;2024-02-21T04:35:37;0.54;74.67
65040;HTU21D;51606;45.000;38.612;2024-02-21T04:38:04;0.53;74.69
65040;HTU21D;51606;45.000;38.612;2024-02-21T04:40:30;0.52;74.70
65040;HTU21D;51606;45.000;38.612;2024-02-21T04:42:57;0.52;74.70
65040;HTU21D;51606;45.000;38.612;2024-02-21T04:45:24;0.51;74.71
65040;HTU21D;51606;45.000;38.612;2024-02-21T04:47:52;0.49;74.71
65040;HTU21D;51606;45.000;38.612;2024-02-21T04:50:18;0.49;74.73
65040;HTU21D;51606;45.000;38.612;2024-02-21T04:52:44;0.49;74.73
65040;HTU21D;51606;45.000;38.612;2024-02-21T04:55:11;0.50;74.70
65040;HTU21D;51606;45.000;38.612;2024-02-21T04:57:37;0.49;74.69
65040;HTU21D;51606;45.000;38.612;2024-02-21T05:00:05;0.50;74.70
65040;HTU21D;51606;45.000;38.612;2024-02-21T05:02:32;0.50;74.70
65040;HTU21D;51606;45.000;38.612;2024-02-21T05:04:58;0.51;74.70
65040;HTU21D;51606;45.000;38.612;2024-02-21T05:07:25;0.52;74.69
65040;HTU21D;51606;45.000;38.612;2024-02-21T05:09:51;0.53;74.67
65040;HTU21D;51606;45.000;38.612;2024-02-21T05:12:18;0.54;74.66
65040;HTU21D;51606;45.000;38.612;2024-02-21T05:14:44;0.55;74.67
65040;HTU21D;51606;45.000;38.612;2024-02-21T05:17:10;0.59;74.63
65040;HTU21D;51606;45.000;38.612;2024-02-21T05:19:37;0.59;74.63
65040;HTU21D;51606;45.000;38.612;2024-02-21T05:22:03;0.64;74.62
65040;HTU21D;51606;45.000;38.612;2024-02-21T05:24:30;0.66;74.59
65040;HTU21D;51606;45.000;38.612;2024-02-21T05:26:56;0.68;74.58
65040;HTU21D;51606;45.000;38.612;2024-02-21T05:29:23;0.69;74.61
65040;HTU21D;51606;45.000;38.612;2024-02-21T05:34:22;0.74;74.58
65040;HTU21D;51606;45.000;38.612;2024-02-21T05:36:49;0.76;74.59
65040;HTU21D;51606;45.000;38.612;2024-02-21T05:39:16;0.79;74.57
65040;HTU21D;51606;45.000;38.612;2024-02-21T05:41:43;0.83;74.56
65040;HTU21D;51606;45.000;38.612;2024-02-21T05:44:10;0.87;74.51
65040;HTU21D;51606;45.000;38.612;2024-02-21T05:46:37;0.89;74.48
65040;HTU21D;51606;45.000;38.612;2024-02-21T05:49:03;0.92;74.51
65040;HTU21D;51606;45.000;38.612;2024-02-21T05:51:33;0.93;74.49
65040;HTU21D;51606;45.000;38.612;2024-02-21T05:54:00;0.97;74.49
65040;HTU21D;51606;45.000;38.612;2024-02-21T05:56:26;0.96;74.51
65040;HTU21D;51606;45.000;38.612;2024-02-21T05:58:53;0.99;74.54
65040;HTU21D;51606;45.000;38.612;2024-02-21T06:01:19;1.01;74.54
65040;HTU21D;51606;45.000;38.612;2024-02-21T06:03:47;1.03;74.53
65040;HTU21D;51606;45.000;38.612;2024-02-21T06:06:14;1.03;74.57
65040;HTU21D;51606;45.000;38.612;2024-02-21T06:08:40;1.04;74.60
65040;HTU21D;51606;45.000;38.612;2024-02-21T06:11:07;1.05;74.57
65040;HTU21D;51606;45.000;38.612;2024-02-21T06:13:37;1.09;74.61
65040;HTU21D;51606;45.000;38.612;2024-02-21T06:16:05;1.17;74.55
65040;HTU21D;51606;45.000;38.612;2024-02-21T06:18:32;1.19;74.48
65040;HTU21D;51606;45.000;38.612;2024-02-21T06:20:58;1.23;74.49
65040;HTU21D;51606;45.000;38.612;2024-02-21T06:23:24;1.25;74.47
65040;HTU21D;51606;45.000;38.612;2024-02-21T06:25:51;1.28;74.47
65040;HTU21D;51606;45.000;38.612;2024-02-21T06:28:18;1.32;74.47
65040;HTU21D;51606;45.000;38.612;2024-02-21T06:30:44;1.34;74.47
65040;HTU21D;51606;45.000;38.612;2024-02-21T06:33:10;1.35;74.45
65040;HTU21D;51606;45.000;38.612;2024-02-21T06:35:37;1.37;74.53
65040;HTU21D;51606;45.000;38.612;2024-02-21T06:38:06;1.39;74.47
65040;HTU21D;51606;45.000;38.612;2024-02-21T06:40:33;1.41;74.50
65040;HTU21D;51606;45.000;38.612;2024-02-21T06:43:05;1.43;74.47
65040;HTU21D;51606;45.000;38.612;2024-02-21T06:45:31;1.46;74.47
65040;HTU21D;51606;45.000;38.612;2024-02-21T06:47:58;1.47;74.52
65040;HTU21D;51606;45.000;38.612;2024-02-21T06:50:24;1.47;74.54
65040;HTU21D;51606;45.000;38.612;2024-02-21T06:52:50;1.50;74.54
65040;HTU21D;51606;45.000;38.612;2024-02-21T06:55:17;1.53;74.54
65040;HTU21D;51606;45.000;38.612;2024-02-21T06:57:43;1.57;74.51
65040;HTU21D;51606;45.000;38.612;2024-02-21T07:00:10;1.64;74.51
65040;HTU21D;51606;45.000;38.612;2024-02-21T07:02:37;1.71;74.43
65040;HTU21D;51606;45.000;38.612;2024-02-21T07:05:03;1.77;74.35
65040;HTU21D;51606;45.000;38.612;2024-02-21T07:07:30;1.82;74.32
65040;HTU21D;51606;45.000;38.612;2024-02-21T07:09:56;1.88;74.29
65040;HTU21D;51606;45.000;38.612;2024-02-21T07:12:22;1.95;74.28
65040;HTU21D;51606;45.000;38.612;2024-02-21T07:14:51;2.03;74.25
65040;HTU21D;51606;45.000;38.612;2024-02-21T07:17:18;2.10;74.18
65040;HTU21D;51606;45.000;38.612;2024-02-21T07:19:44;2.17;74.21
65040;HTU21D;51606;45.000;38.612;2024-02-21T07:22:10;2.29;74.17
65040;HTU21D;51606;45.000;38.612;2024-02-21T07:24:36;2.43;74.13
65040;HTU21D;51606;45.000;38.612;2024-02-21T07:27:03;2.71;74.39
65040;HTU21D;51606;45.000;38.612;2024-02-21T07:29:30;3.90;74.38
65040;HTU21D;51606;45.000;38.612;2024-02-21T07:31:57;4.90;73.87
65040;HTU21D;51606;45.000;38.612;2024-02-21T07:34:23;5.92;73.90
65040;HTU21D;51606;45.000;38.612;2024-02-21T07:36:49;6.95;73.20
65040;HTU21D;51606;45.000;38.612;2024-02-21T07:39:16;7.42;72.91
65040;HTU21D;51606;45.000;38.612;2024-02-21T07:41:42;7.77;72.37
65040;HTU21D;51606;45.000;38.612;2024-02-21T07:44:11;8.06;72.36
65040;HTU21D;51606;45.000;38.612;2024-02-21T07:46:37;8.23;72.08
65040;HTU21D;51606;45.000;38.612;2024-02-21T07:49:04;8.14;71.03
65040;HTU21D;51606;45.000;38.612;2024-02-21T07:51:30;8.65;71.98
65040;HTU21D;51606;45.000;38.612;2024-02-21T07:53:56;9.48;71.51
65040;HTU21D;51606;45.000;38.612;2024-02-21T07:56:23;10.22;70.87
65040;HTU21D;51606;45.000;38.612;2024-02-21T07:58:49;10.85;70.21
65040;HTU21D;51606;45.000;38.612;2024-02-21T08:01:19;11.56;70.32
65040;HTU21D;51606;45.000;38.612;2024-02-21T08:03:47;12.36;70.21
65040;HTU21D;51606;45.000;38.612;2024-02-21T08:06:13;12.87;69.62
65040;HTU21D;51606;45.000;38.612;2024-02-21T08:08:40;13.02;69.85
65040;HTU21D;51606;45.000;38.612;2024-02-21T08:11:06;13.10;69.46
65040;HTU21D;51606;45.000;38.612;2024-02-21T08:13:33;12.66;69.65
65040;HTU21D;51606;45.000;38.612;2024-02-21T08:15:59;13.25;70.10
65040;HTU21D;51606;45.000;38.612;2024-02-21T08:18:26;14.30;69.30
65040;HTU21D;51606;45.000;38.612;2024-02-21T08:20:52;14.86;68.33
65040;HTU21D;51606;45.000;38.612;2024-02-21T08:23:19;14.84;67.67
65040;HTU21D;51606;45.000;38.612;2024-02-21T08:25:45;15.01;68.65
65040;HTU21D;51606;45.000;38.612;2024-02-21T08:28:12;15.59;68.15
65040;HTU21D;51606;45.000;38.612;2024-02-21T08:30:39;15.73;67.33
65040;HTU21D;51606;45.000;38.612;2024-02-21T08:33:05;15.33;67.88
65040;HTU21D;51606;45.000;38.612;2024-02-21T08:35:33;15.80;68.23
65040;HTU21D;51606;45.000;38.612;2024-02-21T08:37:59;16.25;67.30
65040;HTU21D;51606;45.000;38.612;2024-02-21T08:40:25;16.92;67.16
65040;HTU21D;51606;45.000;38.612;2024-02-21T08:42:52;17.84;66.57
65040;HTU21D;51606;45.000;38.612;2024-02-21T08:45:20;18.30;65.43
65040;HTU21D;51606;45.000;38.612;2024-02-21T08:47:46;17.58;65.74
65040;HTU21D;51606;45.000;38.612;2024-02-21T08:50:13;16.86;66.69
65040;HTU21D;51606;45.000;38.612;2024-02-21T08:52:39;16.30;67.19
65040;HTU21D;51606;45.000;38.612;2024-02-21T08:55:06;16.44;67.29
65040;HTU21D;51606;45.000;38.612;2024-02-21T08:57:32;16.19;66.97
65040;HTU21D;51606;45.000;38.612;2024-02-21T09:00:06;15.72;66.88
65040;HTU21D;51606;45.000;38.612;2024-02-21T09:02:40;14.92;67.51
65040;HTU21D;51606;45.000;38.612;2024-02-21T09:05:09;14.49;68.31
65040;HTU21D;51606;45.000;38.612;2024-02-21T09:07:35;14.62;68.04
65040;HTU21D;51606;45.000;38.612;2024-02-21T09:10:02;14.84;67.30
65040;HTU21D;51606;45.000;38.612;2024-02-21T09:12:29;14.66;66.93
65040;HTU21D;51606;45.000;38.612;2024-02-21T09:14:55;14.47;67.16
65040;HTU21D;51606;45.000;38.612;2024-02-21T09:17:21;14.78;67.09
65040;HTU21D;51606;45.000;38.612;2024-02-21T09:19:48;15.03;66.99
65040;HTU21D;51606;45.000;38.612;2024-02-21T09:22:14;14.92;66.41
65040;HTU21D;51606;45.000;38.612;2024-02-21T09:24:41;14.35;66.57
65040;HTU21D;51606;45.000;38.612;2024-02-21T09:27:07;13.64;67.10
65040;HTU21D;51606;45.000;38.612;2024-02-21T09:29:33;13.10;67.72
65040;HTU21D;51606;45.000;38.612;2024-02-21T09:32:00;13.31;68.10
65040;HTU21D;51606;45.000;38.612;2024-02-21T09:34:26;13.51;67.36
65040;HTU21D;51606;45.000;38.612;2024-02-21T09:36:53;13.49;66.89
65040;HTU21D;51606;45.000;38.612;2024-02-21T09:39:20;13.59;66.91
65040;HTU21D;51606;45.000;38.612;2024-02-21T09:41:50;13.80;66.31
65040;HTU21D;51606;45.000;38.612;2024-02-21T09:44:21;14.09;66.11
65040;HTU21D;51606;45.000;38.612;2024-02-21T09:47:02;14.33;65.43
65040;HTU21D;51606;45.000;38.612;2024-02-21T09:49:33;14.42;65.41
65040;HTU21D;51606;45.000;38.612;2024-02-21T09:52:02;14.50;64.95
65040;HTU21D;51606;45.000;38.612;2024-02-21T09:54:30;14.43;64.76
65040;HTU21D;51606;45.000;38.612;2024-02-21T09:57:03;14.42;64.61
65040;HTU21D;51606;45.000;38.612;2024-02-21T09:59:32;14.44;64.47
65040;HTU21D;51606;45.000;38.612;2024-02-21T10:01:59;14.37;64.38
65040;HTU21D;51606;45.000;38.612;2024-02-21T10:04:26;14.36;64.37
65040;HTU21D;51606;45.000;38.612;2024-02-21T10:06:56;14.28;64.16
65040;HTU21D;51606;45.000;38.612;2024-02-21T10:09:23;14.12;64.24
65040;HTU21D;51606;45.000;38.612;2024-02-21T10:11:50;14.05;64.11
65040;HTU21D;51606;45.000;38.612;2024-02-21T10:14:17;13.90;64.04
65040;HTU21D;51606;45.000;38.612;2024-02-21T10:16:48;13.78;63.94
65040;HTU21D;51606;45.000;38.612;2024-02-21T10:19:21;13.64;63.93
65040;HTU21D;51606;45.000;38.612;2024-02-21T10:22:02;13.48;63.96
65040;HTU21D;51606;45.000;38.612;2024-02-21T10:24:30;13.35;64.08
65040;HTU21D;51606;45.000;38.612;2024-02-21T10:27:05;13.16;63.99
65040;HTU21D;51606;45.000;38.612;2024-02-21T10:29:35;12.94;64.05
65040;HTU21D;51606;45.000;38.612;2024-02-21T10:32:12;12.67;64.01
65040;HTU21D;51606;45.000;38.612;2024-02-21T10:34:40;12.45;64.13
65040;HTU21D;51606;45.000;38.612;2024-02-21T10:37:08;12.19;64.07
65040;HTU21D;51606;45.000;38.612;2024-02-21T10:39:41;11.90;64.12
65040;HTU21D;51606;45.000;38.612;2024-02-21T10:42:10;11.58;64.35
65040;HTU21D;51606;45.000;38.612;2024-02-21T10:44:38;11.31;64.46
65040;HTU21D;51606;45.000;38.612;2024-02-21T10:47:12;11.15;64.35
65040;HTU21D;51606;45.000;38.612;2024-02-21T10:49:44;11.03;64.27
65040;HTU21D;51606;45.000;38.612;2024-02-21T10:52:16;10.90;64.18
65040;HTU21D;51606;45.000;38.612;2024-02-21T10:54:53;10.80;64.09
65040;HTU21D;51606;45.000;38.612;2024-02-21T10:57:23;10.67;64.02
65040;HTU21D;51606;45.000;38.612;2024-02-21T10:59:51;10.58;64.01
65040;HTU21D;51606;45.000;38.612;2024-02-21T11:02:18;10.52;63.88
65040;HTU21D;51606;45.000;38.612;2024-02-21T11:04:46;10.48;63.84
65040;HTU21D;51606;45.000;38.612;2024-02-21T11:07:13;10.45;63.71
65040;HTU21D;51606;45.000;38.612;2024-02-21T11:09:40;10.39;63.65
65040;HTU21D;51606;45.000;38.612;2024-02-21T11:12:07;10.35;63.61
65040;HTU21D;51606;45.000;38.612;2024-02-21T11:14:34;10.26;63.58
65040;HTU21D;51606;45.000;38.612;2024-02-21T11:17:18;10.14;63.53
65040;HTU21D;51606;45.000;38.612;2024-02-21T11:19:46;10.03;63.67
65040;HTU21D;51606;45.000;38.612;2024-02-21T11:22:19;9.99;63.64
65040;HTU21D;51606;45.000;38.612;2024-02-21T11:24:47;9.92;63.65
65040;HTU21D;51606;45.000;38.612;2024-02-21T11:27:15;9.82;63.68
65040;HTU21D;51606;45.000;38.612;2024-02-21T11:29:49;9.75;63.69
65040;HTU21D;51606;45.000;38.612;2024-02-21T11:32:18;9.64;63.73
65040;HTU21D;51606;45.000;38.612;2024-02-21T11:34:58;9.55;63.78
65040;HTU21D;51606;45.000;38.612;2024-02-21T11:37:31;9.42;63.81
65040;HTU21D;51606;45.000;38.612;2024-02-21T11:40:00;9.26;64.08
65040;HTU21D;51606;45.000;38.612;2024-02-21T11:42:28;9.23;64.04
65040;HTU21D;51606;45.000;38.612;2024-02-21T11:44:59;9.18;63.97
65040;HTU21D;51606;45.000;38.612;2024-02-21T11:47:28;9.20;63.95
65040;HTU21D;51606;45.000;38.612;2024-02-21T11:49:54;9.22;63.82
65040;HTU21D;51606;45.000;38.612;2024-02-21T11:52:25;9.24;63.73
65040;HTU21D;51606;45.000;38.612;2024-02-21T11:54:52;9.25;63.69
65040;HTU21D;51606;45.000;38.612;2024-02-21T11:57:19;9.24;63.63
65040;HTU21D;51606;45.000;38.612;2024-02-21T11:59:46;9.21;63.63
65040;HTU21D;51606;45.000;38.612;2024-02-21T12:02:13;9.19;63.65
65040;HTU21D;51606;45.000;38.612;2024-02-21T12:04:40;9.14;63.70
65040;HTU21D;51606;45.000;38.612;2024-02-21T12:07:07;9.09;63.77
65040;HTU21D;51606;45.000;38.612;2024-02-21T12:09:34;9.08;63.74
65040;HTU21D;51606;45.000;38.612;2024-02-21T12:12:03;9.00;63.79
65040;HTU21D;51606;45.000;38.612;2024-02-21T12:14:31;8.89;63.92
65040;HTU21D;51606;45.000;38.612;2024-02-21T12:17:02;8.87;64.01
65040;HTU21D;51606;45.000;38.612;2024-02-21T12:19:33;8.82;64.01
65040;HTU21D;51606;45.000;38.612;2024-02-21T12:22:00;8.78;64.06
65040;HTU21D;51606;45.000;38.612;2024-02-21T12:24:28;8.76;64.01
65040;HTU21D;51606;45.000;38.612;2024-02-21T12:26:56;8.59;64.22
65040;HTU21D;51606;45.000;38.612;2024-02-21T12:29:23;8.50;64.37
65040;HTU21D;51606;45.000;38.612;2024-02-21T12:31:53;8.47;64.37
65040;HTU21D;51606;45.000;38.612;2024-02-21T12:34:25;8.46;64.32
65040;HTU21D;51606;45.000;38.612;2024-02-21T12:36:53;8.44;64.33
65040;HTU21D;51606;45.000;38.612;2024-02-21T12:39:19;8.41;64.29
65040;HTU21D;51606;45.000;38.612;2024-02-21T12:41:45;8.35;64.28
65040;HTU21D;51606;45.000;38.612;2024-02-21T12:44:12;8.28;64.32
65040;HTU21D;51606;45.000;38.612;2024-02-21T12:46:39;8.19;64.45
65040;HTU21D;51606;45.000;38.612;2024-02-21T12:49:08;8.04;64.51
65040;HTU21D;51606;45.000;38.612;2024-02-21T12:51:35;7.84;64.74
65040;HTU21D;51606;45.000;38.612;2024-02-21T12:54:02;7.67;64.98
65040;HTU21D;51606;45.000;38.612;2024-02-21T12:56:31;7.58;65.14
65040;HTU21D;51606;45.000;38.612;2024-02-21T12:58:57;7.58;65.02
65040;HTU21D;51606;45.000;38.612;2024-02-21T13:01:24;7.58;64.93
65040;HTU21D;51606;45.000;38.612;2024-02-21T13:03:50;7.52;64.85
65040;HTU21D;51606;45.000;38.612;2024-02-21T13:06:16;7.45;64.88
65040;HTU21D;51606;45.000;38.612;2024-02-21T13:08:45;7.39;64.92
65040;HTU21D;51606;45.000;38.612;2024-02-21T13:11:12;7.37;64.93
65040;HTU21D;51606;45.000;38.612;2024-02-21T13:13:39;7.35;64.87
65040;HTU21D;51606;45.000;38.612;2024-02-21T13:16:06;7.32;64.82
65040;HTU21D;51606;45.000;38.612;2024-02-21T13:18:34;7.20;64.92
65040;HTU21D;51606;45.000;38.612;2024-02-21T13:21:01;7.14;65.02
65040;HTU21D;51606;45.000;38.612;2024-02-21T13:23:27;7.13;65.00
65040;HTU21D;51606;45.000;38.612;2024-02-21T13:25:53;7.10;64.98
65040;HTU21D;51606;45.000;38.612;2024-02-21T13:28:20;7.02;64.98
65040;HTU21D;51606;45.000;38.612;2024-02-21T13:30:46;6.94;65.04
65040;HTU21D;51606;45.000;38.612;2024-02-21T13:33:13;6.84;65.19
65040;HTU21D;51606;45.000;38.612;2024-02-21T13:35:40;6.79;65.22
65040;HTU21D;51606;45.000;38.612;2024-02-21T13:38:06;6.73;65.21
65040;HTU21D;51606;45.000;38.612;2024-02-21T13:40:33;6.63;65.24
65040;HTU21D;51606;45.000;38.612;2024-02-21T13:43:00;6.45;65.46
65040;HTU21D;51606;45.000;38.612;2024-02-21T13:45:27;6.39;65.59
65040;HTU21D;51606;45.000;38.612;2024-02-21T13:47:54;6.34;65.59
65040;HTU21D;51606;45.000;38.612;2024-02-21T13:50:23;6.29;65.56
65040;HTU21D;51606;45.000;38.612;2024-02-21T13:52:54;6.26;65.53
65040;HTU21D;51606;45.000;38.612;2024-02-21T13:55:21;6.20;65.50
65040;HTU21D;51606;45.000;38.612;2024-02-21T13:57:48;6.15;65.51
65040;HTU21D;51606;45.000;38.612;2024-02-21T14:00:15;6.07;65.53
65040;HTU21D;51606;45.000;38.612;2024-02-21T14:02:42;5.99;65.59
65040;HTU21D;51606;45.000;38.612;2024-02-21T14:05:08;5.90;65.66
65040;HTU21D;51606;45.000;38.612;2024-02-21T14:07:35;5.80;65.75
65040;HTU21D;51606;45.000;38.612;2024-02-21T14:10:02;5.69;65.85
65040;HTU21D;51606;45.000;38.612;2024-02-21T14:12:29;5.56;65.96
65040;HTU21D;51606;45.000;38.612;2024-02-21T14:14:56;5.42;66.09
65040;HTU21D;51606;45.000;38.612;2024-02-21T14:18:29;5.30;66.18
65040;HTU21D;51606;45.000;38.612;2024-02-21T14:20:51;5.13;66.30
65040;HTU21D;51606;45.000;38.612;2024-02-21T14:23:18;5.01;66.42
65040;HTU21D;51606;45.000;38.612;2024-02-21T14:25:44;4.89;66.49
65040;HTU21D;51606;45.000;38.612;2024-02-21T14:28:11;4.78;66.54
65040;HTU21D;51606;45.000;38.612;2024-02-21T14:30:37;4.67;66.65
65040;HTU21D;51606;45.000;38.612;2024-02-21T14:33:03;4.52;66.74
65040;HTU21D;51606;45.000;38.612;2024-02-21T14:35:30;4.37;66.85
65040;HTU21D;51606;45.000;38.612;2024-02-21T14:37:56;4.23;66.97
65040;HTU21D;51606;45.000;38.612;2024-02-21T14:40:23;4.13;67.03
65040;HTU21D;51606;45.000;38.612;2024-02-21T14:42:50;4.00;67.09
65040;HTU21D;51606;45.000;38.612;2024-02-21T14:45:16;3.89;67.16
65040;HTU21D;51606;45.000;38.612;2024-02-21T14:47:42;3.77;67.25
65040;HTU21D;51606;45.000;38.612;2024-02-21T14:50:09;3.65;67.30
65040;HTU21D;51606;45.000;38.612;2024-02-21T14:52:36;3.55;67.34
65040;HTU21D;51606;45.000;38.612;2024-02-21T14:55:04;3.43;67.36
65040;HTU21D;51606;45.000;38.612;2024-02-21T14:57:31;3.33;67.42
65040;HTU21D;51606;45.000;38.612;2024-02-21T14:59:57;3.19;67.49
65040;HTU21D;51606;45.000;38.612;2024-02-21T15:02:25;3.06;67.56
65040;HTU21D;51606;45.000;38.612;2024-02-21T15:04:53;2.96;67.62
65040;HTU21D;51606;45.000;38.612;2024-02-21T15:07:20;2.86;67.65
65040;HTU21D;51606;45.000;38.612;2024-02-21T15:09:50;2.80;67.65
65040;HTU21D;51606;45.000;38.612;2024-02-21T15:12:17;2.69;67.66
65040;HTU21D;51606;45.000;38.612;2024-02-21T15:14:43;2.58;67.75
65040;HTU21D;51606;45.000;38.612;2024-02-21T15:17:11;2.44;67.86
65040;HTU21D;51606;45.000;38.612;2024-02-21T15:19:38;2.36;67.92
65040;HTU21D;51606;45.000;38.612;2024-02-21T15:22:12;2.26;67.96
65040;HTU21D;51606;45.000;38.612;2024-02-21T15:24:41;2.20;68.01
65040;HTU21D;51606;45.000;38.612;2024-02-21T15:27:08;2.13;68.03
65040;HTU21D;51606;45.000;38.612;2024-02-21T15:29:35;2.11;67.97
65040;HTU21D;51606;45.000;38.612;2024-02-21T15:32:02;2.08;67.86
65040;HTU21D;51606;45.000;38.612;2024-02-21T15:34:29;2.05;67.80
65040;HTU21D;51606;45.000;38.612;2024-02-21T15:36:55;1.97;67.81
65040;HTU21D;51606;45.000;38.612;2024-02-21T15:39:21;1.91;67.84
65040;HTU21D;51606;45.000;38.612;2024-02-21T15:41:48;1.83;67.86
65040;HTU21D;51606;45.000;38.612;2024-02-21T15:44:14;1.77;67.93
65040;HTU21D;51606;45.000;38.612;2024-02-21T15:46:41;1.69;67.94
65040;HTU21D;51606;45.000;38.612;2024-02-21T15:49:08;1.66;67.96
65040;HTU21D;51606;45.000;38.612;2024-02-21T15:51:34;1.60;67.96
65040;HTU21D;51606;45.000;38.612;2024-02-21T15:54:01;1.55;67.97
65040;HTU21D;51606;45.000;38.612;2024-02-21T15:56:27;1.49;67.94
65040;HTU21D;51606;45.000;38.612;2024-02-21T15:58:53;1.38;68.04
65040;HTU21D;51606;45.000;38.612;2024-02-21T16:01:21;1.28;68.14
65040;HTU21D;51606;45.000;38.612;2024-02-21T16:03:49;1.18;68.23
65040;HTU21D;51606;45.000;38.612;2024-02-21T16:06:15;1.06;68.36
65040;HTU21D;51606;45.000;38.612;2024-02-21T16:08:42;0.93;68.50
65040;HTU21D;51606;45.000;38.612;2024-02-21T16:11:13;0.81;68.63
65040;HTU21D;51606;45.000;38.612;2024-02-21T16:13:43;0.71;68.78
65040;HTU21D;51606;45.000;38.612;2024-02-21T16:16:10;0.61;68.85
65040;HTU21D;51606;45.000;38.612;2024-02-21T16:18:36;0.54;68.88
65040;HTU21D;51606;45.000;38.612;2024-02-21T16:21:02;0.46;68.91
65040;HTU21D;51606;45.000;38.612;2024-02-21T16:23:29;0.39;68.96
65040;HTU21D;51606;45.000;38.612;2024-02-21T16:25:56;0.33;68.97
65040;HTU21D;51606;45.000;38.612;2024-02-21T16:28:23;0.25;69.04
65040;HTU21D;51606;45.000;38.612;2024-02-21T16:30:51;0.19;69.05
65040;HTU21D;51606;45.000;38.612;2024-02-21T16:33:17;0.13;69.07
65040;HTU21D;51606;45.000;38.612;2024-02-21T16:35:44;0.05;69.10
65040;HTU21D;51606;45.000;38.612;2024-02-21T16:38:10;-0.00;69.14
65040;HTU21D;51606;45.000;38.612;2024-02-21T16:40:36;-0.08;69.16
65040;HTU21D;51606;45.000;38.612;2024-02-21T16:43:04;-0.14;69.21
65040;HTU21D;51606;45.000;38.612;2024-02-21T16:45:32;-0.19;69.26
65040;HTU21D;51606;45.000;38.612;2024-02-21T16:47:58;-0.20;69.27
65040;HTU21D;51606;45.000;38.612;2024-02-21T16:50:26;-0.21;69.23
65040;HTU21D;51606;45.000;38.612;2024-02-21T16:52:52;-0.23;69.17
65040;HTU21D;51606;45.000;38.612;2024-02-21T16:55:18;-0.27;69.20
65040;HTU21D;51606;45.000;38.612;2024-02-21T16:57:45;-0.26;69.20
65040;HTU21D;51606;45.000;38.612;2024-02-21T17:00:12;-0.26;69.10
65040;HTU21D;51606;45.000;38.612;2024-02-21T17:02:39;-0.30;69.09
65040;HTU21D;51606;45.000;38.612;2024-02-21T17:05:06;-0.37;69.20
65040;HTU21D;51606;45.000;38.612;2024-02-21T17:07:33;-0.37;69.21
65040;HTU21D;51606;45.000;38.612;2024-02-21T17:09:59;-0.39;69.18
65040;HTU21D;51606;45.000;38.612;2024-02-21T17:12:27;-0.39;69.14
65040;HTU21D;51606;45.000;38.612;2024-02-21T17:14:56;-0.43;69.10
65040;HTU21D;51606;45.000;38.612;2024-02-21T17:17:22;-0.49;69.17
65040;HTU21D;51606;45.000;38.612;2024-02-21T17:19:49;-0.55;69.28
65040;HTU21D;51606;45.000;38.612;2024-02-21T17:22:15;-0.56;69.34
65040;HTU21D;51606;45.000;38.612;2024-02-21T17:24:41;-0.58;69.31
65040;HTU21D;51606;45.000;38.612;2024-02-21T17:27:08;-0.61;69.35
65040;HTU21D;51606;45.000;38.612;2024-02-21T17:29:35;-0.65;69.38
65040;HTU21D;51606;45.000;38.612;2024-02-21T17:32:01;-0.67;69.39
65040;HTU21D;51606;45.000;38.612;2024-02-21T17:34:28;-0.66;69.35
65040;HTU21D;51606;45.000;38.612;2024-02-21T17:36:54;-0.66;69.29
65040;HTU21D;51606;45.000;38.612;2024-02-21T17:39:21;-0.66;69.38
65040;HTU21D;51606;45.000;38.612;2024-02-21T17:41:47;-0.64;69.34
65040;HTU21D;51606;45.000;38.612;2024-02-21T17:44:19;-0.57;69.23
65040;HTU21D;51606;45.000;38.612;2024-02-21T17:46:46;-0.58;69.13
65040;HTU21D;51606;45.000;38.612;2024-02-21T17:49:33;-0.60;69.20
65040;HTU21D;51606;45.000;38.612;2024-02-21T17:51:59;-0.61;69.25
65040;HTU21D;51606;45.000;38.612;2024-02-21T17:54:25;-0.66;69.33
65040;HTU21D;51606;45.000;38.612;2024-02-21T17:56:52;-0.65;69.42
65040;HTU21D;51606;45.000;38.612;2024-02-21T17:59:18;-0.64;69.44
65040;HTU21D;51606;45.000;38.612;2024-02-21T18:01:45;-0.64;69.45
65040;HTU21D;51606;45.000;38.612;2024-02-21T18:04:11;-0.62;69.49
65040;HTU21D;51606;45.000;38.612;2024-02-21T18:06:37;-0.64;69.59
65040;HTU21D;51606;45.000;38.612;2024-02-21T18:09:04;-0.56;69.68
65040;HTU21D;51606;45.000;38.612;2024-02-21T18:11:31;-0.52;69.56
65040;HTU21D;51606;45.000;38.612;2024-02-21T18:13:57;-0.52;69.55
65040;HTU21D;51606;45.000;38.612;2024-02-21T18:16:25;-0.52;69.62
65040;HTU21D;51606;45.000;38.612;2024-02-21T18:18:52;-0.55;69.68
65040;HTU21D;51606;45.000;38.612;2024-02-21T18:21:18;-0.57;69.74
65040;HTU21D;51606;45.000;38.612;2024-02-21T18:23:45;-0.64;69.83
65040;HTU21D;51606;45.000;38.612;2024-02-21T18:26:11;-0.67;69.90
65040;HTU21D;51606;45.000;38.612;2024-02-21T18:28:38;-0.74;70.00
65040;HTU21D;51606;45.000;38.612;2024-02-21T18:31:04;-0.80;70.13
65040;HTU21D;51606;45.000;38.612;2024-02-21T18:33:32;-0.87;70.25
65040;HTU21D;51606;45.000;38.612;2024-02-21T18:35:59;-0.91;70.38
65040;HTU21D;51606;45.000;38.612;2024-02-21T18:38:25;-0.91;70.42
65040;HTU21D;51606;45.000;38.612;2024-02-21T18:40:51;-0.91;70.39
65040;HTU21D;51606;45.000;38.612;2024-02-21T18:43:18;-0.90;70.39
65040;HTU21D;51606;45.000;38.612;2024-02-21T18:45:44;-0.86;70.42
65040;HTU21D;51606;45.000;38.612;2024-02-21T18:48:10;-0.83;70.48
65040;HTU21D;51606;45.000;38.612;2024-02-21T18:50:37;-0.77;70.43
65040;HTU21D;51606;45.000;38.612;2024-02-21T18:53:05;-0.76;70.43
65040;HTU21D;51606;45.000;38.612;2024-02-21T18:55:31;-0.72;70.40
65040;HTU21D;51606;45.000;38.612;2024-02-21T18:57:58;-0.70;70.42